sensor_id;sensor_type;location;lat;lon;timestamp;P1;durP1;ratioP1;P2;durP2;ratioP2
76589;SDS011;65471;55.908;37.880;2022-12-10T00:01:13;33.97;;;13.82;;
76589;SDS011;65471;55.908;37.880;2022-12-10T00:03:43;38.60;;;13.88;;
76589;SDS011;65471;55.908;37.880;2022-12-10T00:06:11;37.67;;;14.95;;
76589;SDS011;65471;55.908;37.880;2022-12-10T00:08:42;40.05;;;16.25;;
76589;SDS011;65471;55.908;37.880;2022-12-10T00:11:09;43.58;;;16.52;;
76589;SDS011;65471;55.908;37.880;2022-12-10T00:13:37;53.38;;;18.15;;
76589;SDS011;65471;55.908;37.880;2022-12-10T00:16:05;51.72;;;16.63;;
76589;SDS011;65471;55.908;37.880;2022-12-10T00:18:34;40.85;;;16.55;;
76589;SDS011;65471;55.908;37.880;2022-12-10T00:21:02;47.45;;;16.50;;
76589;SDS011;65471;55.908;37.880;2022-12-10T00:23:32;38.72;;;16.35;;
76589;SDS011;65471;55.908;37.880;2022-12-10T00:28:52;56.65;;;18.05;;
76589;SDS011;65471;55.908;37.880;2022-12-10T00:31:24;46.58;;;18.20;;
76589;SDS011;65471;55.908;37.880;2022-12-10T00:33:53;57.33;;;17.85;;
76589;SDS011;65471;55.908;37.880;2022-12-10T00:36:24;51.50;;;18.63;;
76589;SDS011;65471;55.908;37.880;2022-12-10T00:38:53;45.13;;;17.20;;
76589;SDS011;65471;55.908;37.880;2022-12-10T00:41:21;51.28;;;18.23;;
76589;SDS011;65471;55.908;37.880;2022-12-10T00:43:48;56.67;;;19.35;;
76589;SDS011;65471;55.908;37.880;2022-12-10T00:46:15;55.60;;;20.08;;
76589;SDS011;65471;55.908;37.880;2022-12-10T00:48:44;51.50;;;18.80;;
76589;SDS011;65471;55.908;37.880;2022-12-10T00:51:15;60.80;;;20.17;;
76589;SDS011;65471;55.908;37.880;2022-12-10T00:53:44;59.38;;;21.60;;
76589;SDS011;65471;55.908;37.880;2022-12-10T00:56:12;61.72;;;20.85;;
76589;SDS011;65471;55.908;37.880;2022-12-10T00:58:41;66.65;;;21.98;;
76589;SDS011;65471;55.908;37.880;2022-12-10T01:03:54;74.00;;;21.60;;
76589;SDS011;65471;55.908;37.880;2022-12-10T01:06:30;78.82;;;21.58;;
76589;SDS011;65471;55.908;37.880;2022-12-10T01:08:59;73.18;;;23.25;;
76589;SDS011;65471;55.908;37.880;2022-12-10T01:11:29;65.93;;;20.75;;
76589;SDS011;65471;55.908;37.880;2022-12-10T01:13:58;69.15;;;22.63;;
76589;SDS011;65471;55.908;37.880;2022-12-10T01:16:26;83.85;;;23.83;;
76589;SDS011;65471;55.908;37.880;2022-12-10T01:18:54;90.53;;;24.10;;
76589;SDS011;65471;55.908;37.880;2022-12-10T01:21:22;74.38;;;23.90;;
76589;SDS011;65471;55.908;37.880;2022-12-10T01:23:50;106.43;;;24.45;;
76589;SDS011;65471;55.908;37.880;2022-12-10T01:26:20;91.78;;;23.98;;
76589;SDS011;65471;55.908;37.880;2022-12-10T01:28:48;90.28;;;25.35;;
76589;SDS011;65471;55.908;37.880;2022-12-10T01:31:17;107.53;;;32.97;;
76589;SDS011;65471;55.908;37.880;2022-12-10T01:33:49;94.60;;;26.08;;
76589;SDS011;65471;55.908;37.880;2022-12-10T01:36:18;82.20;;;23.83;;
76589;SDS011;65471;55.908;37.880;2022-12-10T01:38:49;103.22;;;26.58;;
76589;SDS011;65471;55.908;37.880;2022-12-10T01:41:18;104.18;;;31.65;;
76589;SDS011;65471;55.908;37.880;2022-12-10T01:46:55;99.05;;;32.97;;
76589;SDS011;65471;55.908;37.880;2022-12-10T01:49:36;88.45;;;27.08;;
76589;SDS011;65471;55.908;37.880;2022-12-10T01:52:06;88.47;;;25.40;;
76589;SDS011;65471;55.908;37.880;2022-12-10T01:54:37;86.13;;;23.70;;
76589;SDS011;65471;55.908;37.880;2022-12-10T01:57:07;90.57;;;24.02;;
76589;SDS011;65471;55.908;37.880;2022-12-10T01:59:37;89.68;;;24.25;;
76589;SDS011;65471;55.908;37.880;2022-12-10T02:13:41;88.07;;;29.23;;
76589;SDS011;65471;55.908;37.880;2022-12-10T02:16:18;107.40;;;25.92;;
76589;SDS011;65471;55.908;37.880;2022-12-10T02:18:50;93.75;;;29.02;;
76589;SDS011;65471;55.908;37.880;2022-12-10T02:21:24;90.65;;;24.35;;
76589;SDS011;65471;55.908;37.880;2022-12-10T02:24:00;100.13;;;26.13;;
76589;SDS011;65471;55.908;37.880;2022-12-10T02:26:32;105.50;;;28.60;;
76589;SDS011;65471;55.908;37.880;2022-12-10T02:29:10;96.30;;;27.63;;
76589;SDS011;65471;55.908;37.880;2022-12-10T02:34:35;90.22;;;24.15;;
76589;SDS011;65471;55.908;37.880;2022-12-10T02:37:06;89.50;;;24.90;;
76589;SDS011;65471;55.908;37.880;2022-12-10T02:39:40;97.63;;;25.13;;
76589;SDS011;65471;55.908;37.880;2022-12-10T02:42:12;98.15;;;25.63;;
76589;SDS011;65471;55.908;37.880;2022-12-10T02:44:43;99.43;;;25.85;;
76589;SDS011;65471;55.908;37.880;2022-12-10T02:47:11;88.25;;;25.65;;
76589;SDS011;65471;55.908;37.880;2022-12-10T02:49:39;90.97;;;24.87;;
76589;SDS011;65471;55.908;37.880;2022-12-10T02:52:12;93.75;;;25.17;;
76589;SDS011;65471;55.908;37.880;2022-12-10T02:54:41;98.05;;;24.88;;
76589;SDS011;65471;55.908;37.880;2022-12-10T03:00:04;95.05;;;25.67;;
76589;SDS011;65471;55.908;37.880;2022-12-10T03:02:53;90.05;;;23.80;;
76589;SDS011;65471;55.908;37.880;2022-12-10T03:13:29;206.15;;;61.65;;
76589;SDS011;65471;55.908;37.880;2022-12-10T03:16:02;154.93;;;42.15;;
76589;SDS011;65471;55.908;37.880;2022-12-10T03:18:31;104.40;;;25.85;;
76589;SDS011;65471;55.908;37.880;2022-12-10T03:21:01;97.22;;;21.75;;
76589;SDS011;65471;55.908;37.880;2022-12-10T03:23:32;87.10;;;24.20;;
76589;SDS011;65471;55.908;37.880;2022-12-10T03:26:02;93.45;;;24.27;;
76589;SDS011;65471;55.908;37.880;2022-12-10T03:28:31;96.43;;;25.17;;
76589;SDS011;65471;55.908;37.880;2022-12-10T03:31:03;83.15;;;23.80;;
76589;SDS011;65471;55.908;37.880;2022-12-10T03:33:31;91.28;;;23.30;;
76589;SDS011;65471;55.908;37.880;2022-12-10T03:35:58;96.72;;;23.35;;
76589;SDS011;65471;55.908;37.880;2022-12-10T03:38:26;78.53;;;22.77;;
76589;SDS011;65471;55.908;37.880;2022-12-10T03:40:54;87.25;;;22.50;;
76589;SDS011;65471;55.908;37.880;2022-12-10T03:43:21;89.70;;;24.17;;
76589;SDS011;65471;55.908;37.880;2022-12-10T03:45:48;77.72;;;22.45;;
76589;SDS011;65471;55.908;37.880;2022-12-10T03:48:15;99.35;;;24.23;;
76589;SDS011;65471;55.908;37.880;2022-12-10T03:50:42;83.82;;;21.80;;
76589;SDS011;65471;55.908;37.880;2022-12-10T03:53:08;80.05;;;22.40;;
76589;SDS011;65471;55.908;37.880;2022-12-10T03:55:35;84.72;;;23.48;;
76589;SDS011;65471;55.908;37.880;2022-12-10T03:58:02;83.97;;;21.00;;
76589;SDS011;65471;55.908;37.880;2022-12-10T04:00:29;77.18;;;22.48;;
76589;SDS011;65471;55.908;37.880;2022-12-10T04:02:56;71.28;;;19.13;;
76589;SDS011;65471;55.908;37.880;2022-12-10T04:05:22;67.97;;;19.17;;
76589;SDS011;65471;55.908;37.880;2022-12-10T04:07:49;73.53;;;19.60;;
76589;SDS011;65471;55.908;37.880;2022-12-10T04:10:16;103.47;;;34.53;;
76589;SDS011;65471;55.908;37.880;2022-12-10T04:12:43;80.43;;;25.73;;
76589;SDS011;65471;55.908;37.880;2022-12-10T04:15:30;71.10;;;20.77;;
76589;SDS011;65471;55.908;37.880;2022-12-10T04:18:15;71.53;;;19.77;;
76589;SDS011;65471;55.908;37.880;2022-12-10T04:20:42;60.53;;;19.30;;
76589;SDS011;65471;55.908;37.880;2022-12-10T04:23:28;79.30;;;19.88;;
76589;SDS011;65471;55.908;37.880;2022-12-10T04:26:13;80.70;;;21.70;;
76589;SDS011;65471;55.908;37.880;2022-12-10T04:28:58;94.15;;;23.75;;
76589;SDS011;65471;55.908;37.880;2022-12-10T04:31:25;69.15;;;20.05;;
76589;SDS011;65471;55.908;37.880;2022-12-10T04:33:52;83.50;;;23.38;;
76589;SDS011;65471;55.908;37.880;2022-12-10T04:36:19;97.07;;;22.13;;
76589;SDS011;65471;55.908;37.880;2022-12-10T04:38:45;88.97;;;20.98;;
76589;SDS011;65471;55.908;37.880;2022-12-10T04:41:12;91.93;;;30.55;;
76589;SDS011;65471;55.908;37.880;2022-12-10T04:43:42;78.57;;;23.90;;
76589;SDS011;65471;55.908;37.880;2022-12-10T04:46:09;87.00;;;22.45;;
76589;SDS011;65471;55.908;37.880;2022-12-10T04:48:36;81.38;;;21.75;;
76589;SDS011;65471;55.908;37.880;2022-12-10T04:51:04;86.47;;;22.38;;
76589;SDS011;65471;55.908;37.880;2022-12-10T04:53:30;82.60;;;20.98;;
76589;SDS011;65471;55.908;37.880;2022-12-10T04:55:57;75.38;;;22.20;;
76589;SDS011;65471;55.908;37.880;2022-12-10T04:58:24;84.28;;;21.85;;
76589;SDS011;65471;55.908;37.880;2022-12-10T05:00:51;77.55;;;21.75;;
76589;SDS011;65471;55.908;37.880;2022-12-10T05:03:18;74.45;;;20.38;;
76589;SDS011;65471;55.908;37.880;2022-12-10T05:05:44;88.22;;;22.73;;
76589;SDS011;65471;55.908;37.880;2022-12-10T05:08:11;82.05;;;23.08;;
76589;SDS011;65471;55.908;37.880;2022-12-10T05:10:38;85.00;;;21.85;;
76589;SDS011;65471;55.908;37.880;2022-12-10T05:13:05;87.60;;;24.48;;
76589;SDS011;65471;55.908;37.880;2022-12-10T05:15:31;103.53;;;24.40;;
76589;SDS011;65471;55.908;37.880;2022-12-10T05:17:58;90.30;;;22.77;;
76589;SDS011;65471;55.908;37.880;2022-12-10T05:20:25;81.65;;;22.27;;
76589;SDS011;65471;55.908;37.880;2022-12-10T05:22:57;86.70;;;23.85;;
76589;SDS011;65471;55.908;37.880;2022-12-10T05:25:43;98.22;;;22.58;;
76589;SDS011;65471;55.908;37.880;2022-12-10T05:28:20;99.93;;;24.05;;
76589;SDS011;65471;55.908;37.880;2022-12-10T05:30:48;90.72;;;22.13;;
76589;SDS011;65471;55.908;37.880;2022-12-10T05:33:15;97.07;;;23.67;;
76589;SDS011;65471;55.908;37.880;2022-12-10T05:35:41;90.07;;;22.55;;
76589;SDS011;65471;55.908;37.880;2022-12-10T05:38:08;92.10;;;23.98;;
76589;SDS011;65471;55.908;37.880;2022-12-10T05:40:36;87.15;;;22.02;;
76589;SDS011;65471;55.908;37.880;2022-12-10T05:43:03;92.63;;;22.65;;
76589;SDS011;65471;55.908;37.880;2022-12-10T05:45:33;84.55;;;22.38;;
76589;SDS011;65471;55.908;37.880;2022-12-10T05:48:00;88.22;;;23.30;;
76589;SDS011;65471;55.908;37.880;2022-12-10T05:50:27;79.88;;;22.70;;
76589;SDS011;65471;55.908;37.880;2022-12-10T05:52:54;92.25;;;23.65;;
76589;SDS011;65471;55.908;37.880;2022-12-10T05:55:20;91.07;;;22.40;;
76589;SDS011;65471;55.908;37.880;2022-12-10T05:57:47;102.88;;;29.25;;
76589;SDS011;65471;55.908;37.880;2022-12-10T06:00:14;88.97;;;23.13;;
76589;SDS011;65471;55.908;37.880;2022-12-10T06:02:41;102.95;;;22.55;;
76589;SDS011;65471;55.908;37.880;2022-12-10T06:05:08;89.43;;;21.75;;
76589;SDS011;65471;55.908;37.880;2022-12-10T06:07:35;91.15;;;21.95;;
76589;SDS011;65471;55.908;37.880;2022-12-10T06:10:02;94.10;;;24.38;;
76589;SDS011;65471;55.908;37.880;2022-12-10T06:12:29;91.80;;;22.00;;
76589;SDS011;65471;55.908;37.880;2022-12-10T06:14:56;86.18;;;23.85;;
76589;SDS011;65471;55.908;37.880;2022-12-10T06:17:23;92.82;;;24.60;;
76589;SDS011;65471;55.908;37.880;2022-12-10T06:19:49;96.82;;;23.27;;
76589;SDS011;65471;55.908;37.880;2022-12-10T06:22:16;84.90;;;22.23;;
76589;SDS011;65471;55.908;37.880;2022-12-10T06:24:43;91.00;;;22.48;;
76589;SDS011;65471;55.908;37.880;2022-12-10T06:27:10;99.25;;;23.35;;
76589;SDS011;65471;55.908;37.880;2022-12-10T06:29:37;83.57;;;23.45;;
76589;SDS011;65471;55.908;37.880;2022-12-10T06:32:04;85.85;;;21.85;;
76589;SDS011;65471;55.908;37.880;2022-12-10T06:34:31;89.60;;;22.15;;
76589;SDS011;65471;55.908;37.880;2022-12-10T06:36:57;89.13;;;22.80;;
76589;SDS011;65471;55.908;37.880;2022-12-10T06:39:24;86.78;;;21.15;;
76589;SDS011;65471;55.908;37.880;2022-12-10T06:41:51;87.32;;;22.25;;
76589;SDS011;65471;55.908;37.880;2022-12-10T06:44:24;82.00;;;21.02;;
76589;SDS011;65471;55.908;37.880;2022-12-10T06:46:50;81.50;;;21.63;;
76589;SDS011;65471;55.908;37.880;2022-12-10T06:49:17;89.53;;;23.02;;
76589;SDS011;65471;55.908;37.880;2022-12-10T06:51:44;87.05;;;22.45;;
76589;SDS011;65471;55.908;37.880;2022-12-10T06:54:11;72.05;;;19.75;;
76589;SDS011;65471;55.908;37.880;2022-12-10T06:56:37;86.72;;;22.13;;
76589;SDS011;65471;55.908;37.880;2022-12-10T06:59:04;82.63;;;20.77;;
76589;SDS011;65471;55.908;37.880;2022-12-10T07:01:37;88.35;;;23.45;;
76589;SDS011;65471;55.908;37.880;2022-12-10T07:04:06;60.63;;;19.80;;
76589;SDS011;65471;55.908;37.880;2022-12-10T07:06:34;80.90;;;21.27;;
76589;SDS011;65471;55.908;37.880;2022-12-10T07:09:01;82.78;;;21.05;;
76589;SDS011;65471;55.908;37.880;2022-12-10T07:11:27;85.50;;;22.90;;
76589;SDS011;65471;55.908;37.880;2022-12-10T07:13:59;74.50;;;21.55;;
76589;SDS011;65471;55.908;37.880;2022-12-10T07:16:27;77.63;;;21.23;;
76589;SDS011;65471;55.908;37.880;2022-12-10T07:18:56;77.80;;;21.17;;
76589;SDS011;65471;55.908;37.880;2022-12-10T07:21:26;84.50;;;21.33;;
76589;SDS011;65471;55.908;37.880;2022-12-10T07:23:56;91.88;;;25.15;;
76589;SDS011;65471;55.908;37.880;2022-12-10T07:26:24;69.25;;;21.42;;
76589;SDS011;65471;55.908;37.880;2022-12-10T07:28:51;88.78;;;21.60;;
76589;SDS011;65471;55.908;37.880;2022-12-10T07:31:19;77.53;;;23.25;;
76589;SDS011;65471;55.908;37.880;2022-12-10T07:33:48;88.78;;;24.40;;
76589;SDS011;65471;55.908;37.880;2022-12-10T07:36:16;82.85;;;22.20;;
76589;SDS011;65471;55.908;37.880;2022-12-10T07:38:42;76.65;;;22.38;;
76589;SDS011;65471;55.908;37.880;2022-12-10T07:41:10;83.03;;;22.15;;
76589;SDS011;65471;55.908;37.880;2022-12-10T07:43:39;83.25;;;22.63;;
76589;SDS011;65471;55.908;37.880;2022-12-10T07:48:36;72.30;;;21.73;;
76589;SDS011;65471;55.908;37.880;2022-12-10T07:51:04;87.78;;;23.20;;
76589;SDS011;65471;55.908;37.880;2022-12-10T07:53:32;76.60;;;22.77;;
76589;SDS011;65471;55.908;37.880;2022-12-10T07:55:59;78.07;;;22.90;;
76589;SDS011;65471;55.908;37.880;2022-12-10T07:58:27;81.00;;;24.05;;
76589;SDS011;65471;55.908;37.880;2022-12-10T08:01:11;65.85;;;20.90;;
76589;SDS011;65471;55.908;37.880;2022-12-10T08:03:43;98.85;;;24.58;;
76589;SDS011;65471;55.908;37.880;2022-12-10T08:06:15;81.40;;;23.23;;
76589;SDS011;65471;55.908;37.880;2022-12-10T08:08:43;99.13;;;24.67;;
76589;SDS011;65471;55.908;37.880;2022-12-10T08:11:11;77.90;;;23.88;;
76589;SDS011;65471;55.908;37.880;2022-12-10T08:13:40;83.07;;;23.98;;
76589;SDS011;65471;55.908;37.880;2022-12-10T08:16:09;91.28;;;24.70;;
76589;SDS011;65471;55.908;37.880;2022-12-10T08:18:41;91.53;;;26.40;;
76589;SDS011;65471;55.908;37.880;2022-12-10T08:21:10;97.45;;;25.58;;
76589;SDS011;65471;55.908;37.880;2022-12-10T08:23:39;93.90;;;24.67;;
76589;SDS011;65471;55.908;37.880;2022-12-10T08:26:07;101.40;;;26.10;;
76589;SDS011;65471;55.908;37.880;2022-12-10T08:28:39;91.85;;;26.60;;
76589;SDS011;65471;55.908;37.880;2022-12-10T08:31:07;98.07;;;25.35;;
76589;SDS011;65471;55.908;37.880;2022-12-10T08:33:36;92.00;;;26.58;;
76589;SDS011;65471;55.908;37.880;2022-12-10T08:36:04;99.78;;;27.60;;
76589;SDS011;65471;55.908;37.880;2022-12-10T08:41:05;104.28;;;27.92;;
76589;SDS011;65471;55.908;37.880;2022-12-10T08:43:38;108.38;;;27.30;;
76589;SDS011;65471;55.908;37.880;2022-12-10T08:46:05;108.03;;;28.40;;
76589;SDS011;65471;55.908;37.880;2022-12-10T08:48:33;92.43;;;26.27;;
76589;SDS011;65471;55.908;37.880;2022-12-10T08:51:01;91.47;;;26.33;;
76589;SDS011;65471;55.908;37.880;2022-12-10T08:53:30;93.63;;;27.90;;
76589;SDS011;65471;55.908;37.880;2022-12-10T08:55:58;100.00;;;25.33;;
76589;SDS011;65471;55.908;37.880;2022-12-10T08:58:24;86.85;;;27.83;;
76589;SDS011;65471;55.908;37.880;2022-12-10T09:00:51;99.00;;;28.38;;
76589;SDS011;65471;55.908;37.880;2022-12-10T09:03:18;96.53;;;28.10;;
76589;SDS011;65471;55.908;37.880;2022-12-10T09:05:45;100.93;;;26.58;;
76589;SDS011;65471;55.908;37.880;2022-12-10T09:08:12;103.03;;;28.50;;
76589;SDS011;65471;55.908;37.880;2022-12-10T09:10:40;102.43;;;28.65;;
76589;SDS011;65471;55.908;37.880;2022-12-10T09:13:07;87.47;;;26.95;;
76589;SDS011;65471;55.908;37.880;2022-12-10T09:15:34;107.75;;;28.85;;
76589;SDS011;65471;55.908;37.880;2022-12-10T09:18:01;114.80;;;29.25;;
76589;SDS011;65471;55.908;37.880;2022-12-10T09:20:28;94.43;;;27.95;;
76589;SDS011;65471;55.908;37.880;2022-12-10T09:22:55;102.80;;;28.40;;
76589;SDS011;65471;55.908;37.880;2022-12-10T09:25:22;104.07;;;28.10;;
76589;SDS011;65471;55.908;37.880;2022-12-10T09:27:49;118.93;;;30.88;;
76589;SDS011;65471;55.908;37.880;2022-12-10T09:30:32;114.82;;;29.85;;
76589;SDS011;65471;55.908;37.880;2022-12-10T09:32:59;108.55;;;29.40;;
76589;SDS011;65471;55.908;37.880;2022-12-10T09:35:26;110.93;;;30.20;;
76589;SDS011;65471;55.908;37.880;2022-12-10T09:37:53;105.88;;;30.35;;
76589;SDS011;65471;55.908;37.880;2022-12-10T09:40:35;105.18;;;31.42;;
76589;SDS011;65471;55.908;37.880;2022-12-10T09:46:23;118.10;;;30.95;;
76589;SDS011;65471;55.908;37.880;2022-12-10T09:51:27;127.95;;;32.40;;
76589;SDS011;65471;55.908;37.880;2022-12-10T09:53:57;118.60;;;33.35;;
76589;SDS011;65471;55.908;37.880;2022-12-10T09:56:30;112.72;;;30.42;;
76589;SDS011;65471;55.908;37.880;2022-12-10T09:59:02;122.00;;;31.90;;
76589;SDS011;65471;55.908;37.880;2022-12-10T10:01:38;113.60;;;29.60;;
76589;SDS011;65471;55.908;37.880;2022-12-10T10:04:05;129.02;;;33.38;;
76589;SDS011;65471;55.908;37.880;2022-12-10T10:06:32;132.05;;;35.97;;
76589;SDS011;65471;55.908;37.880;2022-12-10T10:09:00;131.10;;;37.42;;
76589;SDS011;65471;55.908;37.880;2022-12-10T10:11:30;131.52;;;35.47;;
76589;SDS011;65471;55.908;37.880;2022-12-10T10:14:00;115.50;;;33.45;;
76589;SDS011;65471;55.908;37.880;2022-12-10T10:16:33;142.00;;;35.58;;
76589;SDS011;65471;55.908;37.880;2022-12-10T10:19:04;145.45;;;39.38;;
76589;SDS011;65471;55.908;37.880;2022-12-10T10:21:39;139.10;;;40.58;;
76589;SDS011;65471;55.908;37.880;2022-12-10T10:24:10;128.43;;;35.05;;
76589;SDS011;65471;55.908;37.880;2022-12-10T10:26:40;134.88;;;38.53;;
76589;SDS011;65471;55.908;37.880;2022-12-10T10:29:08;133.43;;;36.50;;
76589;SDS011;65471;55.908;37.880;2022-12-10T10:31:38;128.32;;;38.92;;
76589;SDS011;65471;55.908;37.880;2022-12-10T10:34:17;134.13;;;37.80;;
76589;SDS011;65471;55.908;37.880;2022-12-10T10:36:46;121.93;;;35.50;;
76589;SDS011;65471;55.908;37.880;2022-12-10T10:41:52;126.97;;;34.92;;
76589;SDS011;65471;55.908;37.880;2022-12-10T10:44:25;106.40;;;32.45;;
76589;SDS011;65471;55.908;37.880;2022-12-10T10:47:02;119.22;;;36.53;;
76589;SDS011;65471;55.908;37.880;2022-12-10T10:49:49;113.22;;;32.20;;
76589;SDS011;65471;55.908;37.880;2022-12-10T10:52:16;94.88;;;30.70;;
76589;SDS011;65471;55.908;37.880;2022-12-10T10:54:44;101.93;;;29.63;;
76589;SDS011;65471;55.908;37.880;2022-12-10T11:00:06;104.03;;;30.00;;
76589;SDS011;65471;55.908;37.880;2022-12-10T11:02:48;107.03;;;33.30;;
76589;SDS011;65471;55.908;37.880;2022-12-10T11:05:18;89.93;;;27.47;;
76589;SDS011;65471;55.908;37.880;2022-12-10T11:08:05;119.88;;;37.47;;
76589;SDS011;65471;55.908;37.880;2022-12-10T11:10:46;102.70;;;26.13;;
76589;SDS011;65471;55.908;37.880;2022-12-10T11:13:25;92.07;;;26.15;;
76589;SDS011;65471;55.908;37.880;2022-12-10T11:15:57;90.65;;;29.50;;
76589;SDS011;65471;55.908;37.880;2022-12-10T11:18:52;93.68;;;32.20;;
76589;SDS011;65471;55.908;37.880;2022-12-10T11:21:22;75.10;;;24.40;;
76589;SDS011;65471;55.908;37.880;2022-12-10T11:23:53;92.07;;;29.05;;
76589;SDS011;65471;55.908;37.880;2022-12-10T11:26:28;83.97;;;26.20;;
76589;SDS011;65471;55.908;37.880;2022-12-10T11:29:16;80.18;;;25.90;;
76589;SDS011;65471;55.908;37.880;2022-12-10T11:31:56;92.88;;;25.67;;
76589;SDS011;65471;55.908;37.880;2022-12-10T11:34:43;106.85;;;30.77;;
76589;SDS011;65471;55.908;37.880;2022-12-10T11:37:42;77.82;;;26.27;;
76589;SDS011;65471;55.908;37.880;2022-12-10T11:51:47;87.15;;;28.85;;
76589;SDS011;65471;55.908;37.880;2022-12-10T12:05:41;84.28;;;22.40;;
76589;SDS011;65471;55.908;37.880;2022-12-10T12:08:39;84.30;;;23.27;;
76589;SDS011;65471;55.908;37.880;2022-12-10T12:11:47;75.30;;;24.30;;
76589;SDS011;65471;55.908;37.880;2022-12-10T12:17:09;74.93;;;22.83;;
76589;SDS011;65471;55.908;37.880;2022-12-10T12:19:44;82.47;;;24.05;;
76589;SDS011;65471;55.908;37.880;2022-12-10T12:22:16;78.65;;;23.67;;
76589;SDS011;65471;55.908;37.880;2022-12-10T12:24:51;76.00;;;23.35;;
76589;SDS011;65471;55.908;37.880;2022-12-10T12:30:14;84.80;;;25.40;;
76589;SDS011;65471;55.908;37.880;2022-12-10T12:32:56;79.65;;;24.35;;
76589;SDS011;65471;55.908;37.880;2022-12-10T12:41:05;85.72;;;25.95;;
76589;SDS011;65471;55.908;37.880;2022-12-10T12:43:49;87.50;;;27.67;;
76589;SDS011;65471;55.908;37.880;2022-12-10T12:46:26;82.22;;;22.95;;
76589;SDS011;65471;55.908;37.880;2022-12-10T12:54:02;75.25;;;22.45;;
76589;SDS011;65471;55.908;37.880;2022-12-10T13:02:08;64.60;;;21.30;;
76589;SDS011;65471;55.908;37.880;2022-12-10T13:04:53;60.65;;;20.67;;
76589;SDS011;65471;55.908;37.880;2022-12-10T13:09:50;58.35;;;20.13;;
76589;SDS011;65471;55.908;37.880;2022-12-10T13:20:48;62.28;;;19.88;;
76589;SDS011;65471;55.908;37.880;2022-12-10T13:28:32;62.78;;;20.25;;
76589;SDS011;65471;55.908;37.880;2022-12-10T13:36:36;54.35;;;18.13;;
76589;SDS011;65471;55.908;37.880;2022-12-10T13:45:00;50.28;;;17.23;;
76589;SDS011;65471;55.908;37.880;2022-12-10T13:47:41;56.38;;;16.85;;
76589;SDS011;65471;55.908;37.880;2022-12-10T13:50:16;47.58;;;17.02;;
76589;SDS011;65471;55.908;37.880;2022-12-10T13:55:49;47.90;;;16.90;;
76589;SDS011;65471;55.908;37.880;2022-12-10T14:06:35;93.30;;;41.00;;
76589;SDS011;65471;55.908;37.880;2022-12-10T14:09:10;47.60;;;17.55;;
76589;SDS011;65471;55.908;37.880;2022-12-10T14:11:42;54.80;;;19.50;;
76589;SDS011;65471;55.908;37.880;2022-12-10T14:14:25;49.15;;;18.17;;
76589;SDS011;65471;55.908;37.880;2022-12-10T14:17:33;53.10;;;18.67;;
76589;SDS011;65471;55.908;37.880;2022-12-10T14:19:57;54.95;;;20.48;;
76589;SDS011;65471;55.908;37.880;2022-12-10T14:22:38;53.42;;;18.55;;
76589;SDS011;65471;55.908;37.880;2022-12-10T14:25:12;46.60;;;16.50;;
76589;SDS011;65471;55.908;37.880;2022-12-10T14:27:41;42.50;;;17.05;;
76589;SDS011;65471;55.908;37.880;2022-12-10T14:32:45;42.92;;;17.45;;
76589;SDS011;65471;55.908;37.880;2022-12-10T14:35:15;42.95;;;18.80;;
76589;SDS011;65471;55.908;37.880;2022-12-10T14:37:50;38.67;;;16.42;;
76589;SDS011;65471;55.908;37.880;2022-12-10T14:40:39;39.65;;;16.05;;
76589;SDS011;65471;55.908;37.880;2022-12-10T14:43:11;37.95;;;14.60;;
76589;SDS011;65471;55.908;37.880;2022-12-10T14:45:47;39.65;;;15.05;;
76589;SDS011;65471;55.908;37.880;2022-12-10T14:48:19;43.53;;;14.80;;
76589;SDS011;65471;55.908;37.880;2022-12-10T14:50:46;38.53;;;15.75;;
76589;SDS011;65471;55.908;37.880;2022-12-10T14:53:22;42.95;;;16.17;;
76589;SDS011;65471;55.908;37.880;2022-12-10T14:56:02;42.70;;;16.20;;
76589;SDS011;65471;55.908;37.880;2022-12-10T14:58:36;51.60;;;21.17;;
76589;SDS011;65471;55.908;37.880;2022-12-10T15:04:06;45.90;;;18.42;;
76589;SDS011;65471;55.908;37.880;2022-12-10T15:06:51;42.35;;;16.20;;
76589;SDS011;65471;55.908;37.880;2022-12-10T15:09:22;33.72;;;14.55;;
76589;SDS011;65471;55.908;37.880;2022-12-10T15:11:52;40.08;;;14.50;;
76589;SDS011;65471;55.908;37.880;2022-12-10T15:14:27;43.63;;;17.10;;
76589;SDS011;65471;55.908;37.880;2022-12-10T15:16:56;42.25;;;14.65;;
76589;SDS011;65471;55.908;37.880;2022-12-10T15:21:59;33.38;;;13.57;;
76589;SDS011;65471;55.908;37.880;2022-12-10T15:24:47;39.60;;;14.32;;
76589;SDS011;65471;55.908;37.880;2022-12-10T15:27:18;36.35;;;12.85;;
76589;SDS011;65471;55.908;37.880;2022-12-10T15:29:48;39.58;;;14.88;;
76589;SDS011;65471;55.908;37.880;2022-12-10T15:32:19;33.58;;;13.88;;
76589;SDS011;65471;55.908;37.880;2022-12-10T15:35:01;33.65;;;13.60;;
76589;SDS011;65471;55.908;37.880;2022-12-10T15:37:34;39.90;;;14.90;;
76589;SDS011;65471;55.908;37.880;2022-12-10T15:40:05;26.30;;;13.57;;
76589;SDS011;65471;55.908;37.880;2022-12-10T15:42:46;31.77;;;14.45;;
76589;SDS011;65471;55.908;37.880;2022-12-10T15:45:21;36.08;;;13.32;;
76589;SDS011;65471;55.908;37.880;2022-12-10T15:47:57;33.30;;;15.65;;
76589;SDS011;65471;55.908;37.880;2022-12-10T15:50:25;27.25;;;12.88;;
76589;SDS011;65471;55.908;37.880;2022-12-10T15:52:54;28.20;;;12.90;;
76589;SDS011;65471;55.908;37.880;2022-12-10T15:55:21;26.75;;;12.73;;
76589;SDS011;65471;55.908;37.880;2022-12-10T15:57:48;28.50;;;11.98;;
76589;SDS011;65471;55.908;37.880;2022-12-10T16:00:20;32.33;;;13.45;;
76589;SDS011;65471;55.908;37.880;2022-12-10T16:05:30;27.33;;;12.57;;
76589;SDS011;65471;55.908;37.880;2022-12-10T16:08:42;25.25;;;11.77;;
76589;SDS011;65471;55.908;37.880;2022-12-10T16:10:51;25.42;;;12.98;;
76589;SDS011;65471;55.908;37.880;2022-12-10T16:13:22;20.90;;;11.40;;
76589;SDS011;65471;55.908;37.880;2022-12-10T16:15:55;15.98;;;10.35;;
76589;SDS011;65471;55.908;37.880;2022-12-10T16:18:25;16.77;;;10.65;;
76589;SDS011;65471;55.908;37.880;2022-12-10T16:20:59;21.30;;;11.30;;
76589;SDS011;65471;55.908;37.880;2022-12-10T16:23:25;21.77;;;11.35;;
76589;SDS011;65471;55.908;37.880;2022-12-10T16:25:52;15.75;;;9.80;;
76589;SDS011;65471;55.908;37.880;2022-12-10T16:28:20;18.20;;;10.60;;
76589;SDS011;65471;55.908;37.880;2022-12-10T16:30:49;16.38;;;9.30;;
76589;SDS011;65471;55.908;37.880;2022-12-10T16:33:21;19.23;;;9.80;;
76589;SDS011;65471;55.908;37.880;2022-12-10T16:35:50;19.27;;;9.75;;
76589;SDS011;65471;55.908;37.880;2022-12-10T16:40:45;29.27;;;7.20;;
76589;SDS011;65471;55.908;37.880;2022-12-10T16:43:20;14.47;;;9.47;;
76589;SDS011;65471;55.908;37.880;2022-12-10T16:45:51;12.88;;;9.15;;
76589;SDS011;65471;55.908;37.880;2022-12-10T16:48:21;13.02;;;9.07;;
76589;SDS011;65471;55.908;37.880;2022-12-10T16:50:49;12.88;;;8.90;;
76589;SDS011;65471;55.908;37.880;2022-12-10T16:55:44;13.95;;;8.82;;
76589;SDS011;65471;55.908;37.880;2022-12-10T16:58:12;10.23;;;7.45;;